sensor_id;sensor_type;location;lat;lon;timestamp;P1;durP1;ratioP1;P2;durP2;ratioP2
83282;SDS011;73190;50.780;5.658;2024-02-26T00:01:31;7.78;;;2.37;;
83282;SDS011;73190;50.780;5.658;2024-02-26T00:03:59;5.75;;;1.90;;
83282;SDS011;73190;50.780;5.658;2024-02-26T00:06:28;5.10;;;2.10;;
83282;SDS011;73190;50.780;5.658;2024-02-26T00:08:56;5.78;;;2.67;;
83282;SDS011;73190;50.780;5.658;2024-02-26T00:11:24;6.42;;;2.50;;
83282;SDS011;73190;50.780;5.658;2024-02-26T00:13:52;4.85;;;1.67;;
83282;SDS011;73190;50.780;5.658;2024-02-26T00:16:19;5.65;;;1.80;;
83282;SDS011;73190;50.780;5.658;2024-02-26T00:18:47;4.70;;;2.00;;
83282;SDS011;73190;50.780;5.658;2024-02-26T00:21:14;4.97;;;1.90;;
83282;SDS011;73190;50.780;5.658;2024-02-26T00:23:42;4.00;;;1.85;;
83282;SDS011;73190;50.780;5.658;2024-02-26T00:26:10;3.83;;;1.77;;
83282;SDS011;73190;50.780;5.658;2024-02-26T00:28:37;4.17;;;2.00;;
83282;SDS011;73190;50.780;5.658;2024-02-26T00:31:05;4.70;;;1.67;;
83282;SDS011;73190;50.780;5.658;2024-02-26T00:33:32;4.28;;;1.95;;
83282;SDS011;73190;50.780;5.658;2024-02-26T00:36:00;4.15;;;1.50;;
83282;SDS011;73190;50.780;5.658;2024-02-26T00:38:28;3.27;;;1.70;;
83282;SDS011;73190;50.780;5.658;2024-02-26T00:40:55;4.22;;;1.50;;
83282;SDS011;73190;50.780;5.658;2024-02-26T00:43:23;5.05;;;2.35;;
83282;SDS011;73190;50.780;5.658;2024-02-26T00:45:50;6.90;;;1.95;;
83282;SDS011;73190;50.780;5.658;2024-02-26T00:48:18;5.28;;;2.05;;
83282;SDS011;73190;50.780;5.658;2024-02-26T00:50:45;5.10;;;1.72;;
83282;SDS011;73190;50.780;5.658;2024-02-26T00:53:13;5.10;;;1.80;;
83282;SDS011;73190;50.780;5.658;2024-02-26T00:55:40;4.22;;;1.50;;
83282;SDS011;73190;50.780;5.658;2024-02-26T00:58:08;6.33;;;2.20;;
83282;SDS011;73190;50.780;5.658;2024-02-26T01:00:37;6.08;;;1.75;;
83282;SDS011;73190;50.780;5.658;2024-02-26T01:03:05;3.55;;;1.40;;
83282;SDS011;73190;50.780;5.658;2024-02-26T01:05:38;5.47;;;1.98;;
83282;SDS011;73190;50.780;5.658;2024-02-26T01:08:05;2.80;;;1.40;;
83282;SDS011;73190;50.780;5.658;2024-02-26T01:10:35;3.67;;;1.60;;
83282;SDS011;73190;50.780;5.658;2024-02-26T01:13:06;4.00;;;1.60;;
83282;SDS011;73190;50.780;5.658;2024-02-26T01:15:33;3.50;;;1.40;;
83282;SDS011;73190;50.780;5.658;2024-02-26T01:18:03;2.67;;;1.40;;
83282;SDS011;73190;50.780;5.658;2024-02-26T01:20:50;3.42;;;1.20;;
83282;SDS011;73190;50.780;5.658;2024-02-26T01:23:22;3.92;;;1.32;;
83282;SDS011;73190;50.780;5.658;2024-02-26T01:25:51;4.55;;;1.12;;
83282;SDS011;73190;50.780;5.658;2024-02-26T01:28:22;3.70;;;1.20;;
83282;SDS011;73190;50.780;5.658;2024-02-26T01:31:00;4.15;;;1.15;;
83282;SDS011;73190;50.780;5.658;2024-02-26T01:33:31;3.65;;;1.20;;
83282;SDS011;73190;50.780;5.658;2024-02-26T01:36:04;4.08;;;1.47;;
83282;SDS011;73190;50.780;5.658;2024-02-26T01:38:35;3.33;;;1.30;;
83282;SDS011;73190;50.780;5.658;2024-02-26T01:41:06;2.58;;;1.27;;
83282;SDS011;73190;50.780;5.658;2024-02-26T01:43:33;2.85;;;1.25;;
83282;SDS011;73190;50.780;5.658;2024-02-26T01:48:30;2.33;;;1.10;;
83282;SDS011;73190;50.780;5.658;2024-02-26T01:50:58;3.77;;;1.70;;
83282;SDS011;73190;50.780;5.658;2024-02-26T01:53:27;3.58;;;1.30;;
83282;SDS011;73190;50.780;5.658;2024-02-26T01:56:01;3.65;;;1.10;;
83282;SDS011;73190;50.780;5.658;2024-02-26T01:58:33;4.90;;;1.77;;
83282;SDS011;73190;50.780;5.658;2024-02-26T02:01:08;5.67;;;1.55;;
83282;SDS011;73190;50.780;5.658;2024-02-26T02:03:46;7.30;;;1.30;;
83282;SDS011;73190;50.780;5.658;2024-02-26T02:06:20;6.85;;;1.40;;
83282;SDS011;73190;50.780;5.658;2024-02-26T02:08:52;2.00;;;0.75;;
83282;SDS011;73190;50.780;5.658;2024-02-26T02:11:22;3.02;;;0.95;;
83282;SDS011;73190;50.780;5.658;2024-02-26T02:13:52;2.02;;;1.00;;
83282;SDS011;73190;50.780;5.658;2024-02-26T02:16:24;2.65;;;1.20;;
83282;SDS011;73190;50.780;5.658;2024-02-26T02:18:53;4.05;;;1.00;;
83282;SDS011;73190;50.780;5.658;2024-02-26T02:21:20;2.12;;;0.80;;
83282;SDS011;73190;50.780;5.658;2024-02-26T02:23:51;3.58;;;0.98;;
83282;SDS011;73190;50.780;5.658;2024-02-26T02:26:18;2.25;;;1.07;;
83282;SDS011;73190;50.780;5.658;2024-02-26T02:31:35;2.55;;;1.00;;
83282;SDS011;73190;50.780;5.658;2024-02-26T02:34:02;2.33;;;0.88;;
83282;SDS011;73190;50.780;5.658;2024-02-26T02:36:30;1.77;;;0.80;;
83282;SDS011;73190;50.780;5.658;2024-02-26T02:38:58;2.33;;;0.80;;
83282;SDS011;73190;50.780;5.658;2024-02-26T02:41:25;2.72;;;0.85;;
83282;SDS011;73190;50.780;5.658;2024-02-26T02:43:54;2.20;;;0.90;;
83282;SDS011;73190;50.780;5.658;2024-02-26T02:46:22;2.95;;;1.02;;
83282;SDS011;73190;50.780;5.658;2024-02-26T02:48:50;3.42;;;0.98;;
83282;SDS011;73190;50.780;5.658;2024-02-26T02:51:17;2.40;;;0.70;;
83282;SDS011;73190;50.780;5.658;2024-02-26T02:53:46;3.37;;;0.98;;
83282;SDS011;73190;50.780;5.658;2024-02-26T02:56:13;2.37;;;1.00;;
83282;SDS011;73190;50.780;5.658;2024-02-26T02:58:41;4.40;;;0.90;;
83282;SDS011;73190;50.780;5.658;2024-02-26T03:01:13;2.33;;;0.90;;
83282;SDS011;73190;50.780;5.658;2024-02-26T03:03:40;2.52;;;1.10;;
83282;SDS011;73190;50.780;5.658;2024-02-26T03:06:08;3.80;;;1.57;;
83282;SDS011;73190;50.780;5.658;2024-02-26T03:08:35;1.85;;;0.90;;
83282;SDS011;73190;50.780;5.658;2024-02-26T03:11:05;4.75;;;1.17;;
83282;SDS011;73190;50.780;5.658;2024-02-26T03:13:32;2.95;;;0.95;;
83282;SDS011;73190;50.780;5.658;2024-02-26T03:16:04;2.37;;;0.90;;
83282;SDS011;73190;50.780;5.658;2024-02-26T03:18:32;2.10;;;1.07;;
83282;SDS011;73190;50.780;5.658;2024-02-26T03:21:00;1.80;;;0.70;;
83282;SDS011;73190;50.780;5.658;2024-02-26T03:23:28;3.12;;;1.10;;
83282;SDS011;73190;50.780;5.658;2024-02-26T03:25:58;2.17;;;0.72;;
83282;SDS011;73190;50.780;5.658;2024-02-26T03:28:25;3.27;;;1.00;;
83282;SDS011;73190;50.780;5.658;2024-02-26T03:30:53;2.08;;;1.02;;
83282;SDS011;73190;50.780;5.658;2024-02-26T03:33:20;2.95;;;1.00;;
83282;SDS011;73190;50.780;5.658;2024-02-26T03:35:48;1.98;;;1.00;;
83282;SDS011;73190;50.780;5.658;2024-02-26T03:38:17;2.33;;;0.78;;
83282;SDS011;73190;50.780;5.658;2024-02-26T03:40:44;2.55;;;0.98;;
83282;SDS011;73190;50.780;5.658;2024-02-26T03:43:12;2.27;;;0.90;;
83282;SDS011;73190;50.780;5.658;2024-02-26T03:45:40;3.02;;;0.95;;
83282;SDS011;73190;50.780;5.658;2024-02-26T03:48:07;6.30;;;1.20;;
83282;SDS011;73190;50.780;5.658;2024-02-26T03:50:36;1.65;;;1.00;;
83282;SDS011;73190;50.780;5.658;2024-02-26T03:53:03;1.87;;;0.90;;
83282;SDS011;73190;50.780;5.658;2024-02-26T03:55:31;1.82;;;1.10;;
83282;SDS011;73190;50.780;5.658;2024-02-26T03:57:59;1.52;;;0.90;;
83282;SDS011;73190;50.780;5.658;2024-02-26T04:00:26;2.45;;;1.07;;
83282;SDS011;73190;50.780;5.658;2024-02-26T04:02:56;1.57;;;0.90;;
83282;SDS011;73190;50.780;5.658;2024-02-26T04:05:23;5.08;;;1.55;;
83282;SDS011;73190;50.780;5.658;2024-02-26T04:07:51;2.55;;;0.95;;
83282;SDS011;73190;50.780;5.658;2024-02-26T04:10:18;2.02;;;1.10;;
83282;SDS011;73190;50.780;5.658;2024-02-26T04:12:46;2.08;;;0.85;;
83282;SDS011;73190;50.780;5.658;2024-02-26T04:15:13;2.45;;;0.93;;
83282;SDS011;73190;50.780;5.658;2024-02-26T04:17:41;1.40;;;0.98;;
83282;SDS011;73190;50.780;5.658;2024-02-26T04:20:12;2.12;;;1.15;;
83282;SDS011;73190;50.780;5.658;2024-02-26T04:22:39;2.75;;;1.20;;
83282;SDS011;73190;50.780;5.658;2024-02-26T04:25:07;2.98;;;1.30;;
83282;SDS011;73190;50.780;5.658;2024-02-26T04:27:35;1.25;;;0.85;;
83282;SDS011;73190;50.780;5.658;2024-02-26T04:30:02;4.08;;;1.10;;
83282;SDS011;73190;50.780;5.658;2024-02-26T04:32:30;2.80;;;1.20;;
83282;SDS011;73190;50.780;5.658;2024-02-26T04:34:58;2.08;;;1.10;;
83282;SDS011;73190;50.780;5.658;2024-02-26T04:37:26;1.30;;;0.88;;
83282;SDS011;73190;50.780;5.658;2024-02-26T04:40:00;2.65;;;1.15;;
83282;SDS011;73190;50.780;5.658;2024-02-26T04:42:28;2.55;;;1.00;;
83282;SDS011;73190;50.780;5.658;2024-02-26T04:44:56;2.25;;;0.80;;
83282;SDS011;73190;50.780;5.658;2024-02-26T04:47:23;3.10;;;1.10;;
83282;SDS011;73190;50.780;5.658;2024-02-26T04:49:51;2.45;;;1.00;;
83282;SDS011;73190;50.780;5.658;2024-02-26T04:52:19;2.67;;;1.02;;
83282;SDS011;73190;50.780;5.658;2024-02-26T04:54:47;3.83;;;1.22;;
83282;SDS011;73190;50.780;5.658;2024-02-26T04:57:18;2.55;;;1.20;;
83282;SDS011;73190;50.780;5.658;2024-02-26T04:59:45;1.60;;;0.93;;
83282;SDS011;73190;50.780;5.658;2024-02-26T05:02:13;1.95;;;1.35;;
83282;SDS011;73190;50.780;5.658;2024-02-26T05:04:41;1.75;;;1.20;;
83282;SDS011;73190;50.780;5.658;2024-02-26T05:07:09;1.57;;;1.07;;
83282;SDS011;73190;50.780;5.658;2024-02-26T05:09:38;1.73;;;1.00;;
83282;SDS011;73190;50.780;5.658;2024-02-26T05:12:08;2.27;;;1.12;;
83282;SDS011;73190;50.780;5.658;2024-02-26T05:14:36;3.08;;;1.10;;
83282;SDS011;73190;50.780;5.658;2024-02-26T05:17:03;1.55;;;1.00;;
83282;SDS011;73190;50.780;5.658;2024-02-26T05:19:31;2.17;;;0.98;;
83282;SDS011;73190;50.780;5.658;2024-02-26T05:21:59;2.60;;;1.20;;
83282;SDS011;73190;50.780;5.658;2024-02-26T05:24:26;2.83;;;1.20;;
83282;SDS011;73190;50.780;5.658;2024-02-26T05:26:54;2.80;;;1.10;;
83282;SDS011;73190;50.780;5.658;2024-02-26T05:29:21;2.95;;;1.10;;
83282;SDS011;73190;50.780;5.658;2024-02-26T05:31:49;2.55;;;1.20;;
83282;SDS011;73190;50.780;5.658;2024-02-26T05:34:16;1.30;;;0.70;;
83282;SDS011;73190;50.780;5.658;2024-02-26T05:36:44;1.92;;;1.10;;
83282;SDS011;73190;50.780;5.658;2024-02-26T05:39:11;2.42;;;1.10;;
83282;SDS011;73190;50.780;5.658;2024-02-26T05:41:39;1.40;;;0.93;;
83282;SDS011;73190;50.780;5.658;2024-02-26T05:44:08;2.40;;;1.10;;
83282;SDS011;73190;50.780;5.658;2024-02-26T05:46:36;1.55;;;1.00;;
83282;SDS011;73190;50.780;5.658;2024-02-26T05:49:03;1.67;;;1.10;;
83282;SDS011;73190;50.780;5.658;2024-02-26T05:51:32;2.27;;;0.90;;
83282;SDS011;73190;50.780;5.658;2024-02-26T05:54:00;2.08;;;1.10;;
83282;SDS011;73190;50.780;5.658;2024-02-26T05:56:28;2.58;;;1.10;;
83282;SDS011;73190;50.780;5.658;2024-02-26T05:58:55;1.92;;;0.95;;
83282;SDS011;73190;50.780;5.658;2024-02-26T06:01:23;2.60;;;1.37;;
83282;SDS011;73190;50.780;5.658;2024-02-26T06:03:51;2.58;;;1.30;;
83282;SDS011;73190;50.780;5.658;2024-02-26T06:06:19;1.65;;;1.15;;
83282;SDS011;73190;50.780;5.658;2024-02-26T06:08:48;1.93;;;0.90;;
83282;SDS011;73190;50.780;5.658;2024-02-26T06:11:16;1.87;;;1.20;;
83282;SDS011;73190;50.780;5.658;2024-02-26T06:13:44;3.25;;;1.25;;
83282;SDS011;73190;50.780;5.658;2024-02-26T06:16:11;3.58;;;1.35;;
83282;SDS011;73190;50.780;5.658;2024-02-26T06:18:39;4.87;;;2.20;;
83282;SDS011;73190;50.780;5.658;2024-02-26T06:21:09;4.72;;;2.50;;
83282;SDS011;73190;50.780;5.658;2024-02-26T06:23:38;2.47;;;1.62;;
83282;SDS011;73190;50.780;5.658;2024-02-26T06:26:09;5.40;;;2.30;;
83282;SDS011;73190;50.780;5.658;2024-02-26T06:28:36;6.70;;;2.27;;
83282;SDS011;73190;50.780;5.658;2024-02-26T06:31:06;5.10;;;1.70;;
83282;SDS011;73190;50.780;5.658;2024-02-26T06:33:33;3.85;;;2.00;;
83282;SDS011;73190;50.780;5.658;2024-02-26T06:36:01;4.47;;;2.02;;
83282;SDS011;73190;50.780;5.658;2024-02-26T06:38:30;3.12;;;1.80;;
83282;SDS011;73190;50.780;5.658;2024-02-26T06:40:58;2.35;;;1.40;;
83282;SDS011;73190;50.780;5.658;2024-02-26T06:43:25;3.25;;;1.75;;
83282;SDS011;73190;50.780;5.658;2024-02-26T06:45:53;4.35;;;1.85;;
83282;SDS011;73190;50.780;5.658;2024-02-26T06:48:20;4.30;;;1.72;;
83282;SDS011;73190;50.780;5.658;2024-02-26T06:50:49;3.40;;;1.50;;
83282;SDS011;73190;50.780;5.658;2024-02-26T06:53:17;4.47;;;1.70;;
83282;SDS011;73190;50.780;5.658;2024-02-26T06:55:44;4.40;;;1.37;;
83282;SDS011;73190;50.780;5.658;2024-02-26T06:58:12;5.53;;;3.12;;
83282;SDS011;73190;50.780;5.658;2024-02-26T07:00:40;9.88;;;5.65;;
83282;SDS011;73190;50.780;5.658;2024-02-26T07:03:07;8.40;;;4.35;;
83282;SDS011;73190;50.780;5.658;2024-02-26T07:05:35;14.03;;;8.45;;
83282;SDS011;73190;50.780;5.658;2024-02-26T07:08:02;10.60;;;3.20;;
83282;SDS011;73190;50.780;5.658;2024-02-26T07:10:30;5.30;;;2.42;;
83282;SDS011;73190;50.780;5.658;2024-02-26T07:12:57;5.28;;;2.30;;
83282;SDS011;73190;50.780;5.658;2024-02-26T07:15:25;4.03;;;2.20;;
83282;SDS011;73190;50.780;5.658;2024-02-26T07:17:53;6.55;;;2.70;;
83282;SDS011;73190;50.780;5.658;2024-02-26T07:20:20;5.42;;;2.33;;
83282;SDS011;73190;50.780;5.658;2024-02-26T07:22:48;5.78;;;2.65;;
83282;SDS011;73190;50.780;5.658;2024-02-26T07:25:15;4.20;;;2.60;;
83282;SDS011;73190;50.780;5.658;2024-02-26T07:27:43;4.65;;;2.35;;
83282;SDS011;73190;50.780;5.658;2024-02-26T07:30:10;9.58;;;5.78;;
83282;SDS011;73190;50.780;5.658;2024-02-26T07:32:38;4.17;;;3.08;;
83282;SDS011;73190;50.780;5.658;2024-02-26T07:35:06;11.97;;;9.30;;
83282;SDS011;73190;50.780;5.658;2024-02-26T07:37:34;4.08;;;3.20;;
83282;SDS011;73190;50.780;5.658;2024-02-26T07:40:01;5.40;;;3.15;;
83282;SDS011;73190;50.780;5.658;2024-02-26T07:42:29;5.45;;;2.80;;
83282;SDS011;73190;50.780;5.658;2024-02-26T07:44:57;4.00;;;2.58;;
83282;SDS011;73190;50.780;5.658;2024-02-26T07:47:24;4.03;;;2.30;;
83282;SDS011;73190;50.780;5.658;2024-02-26T07:49:52;13.03;;;2.77;;
83282;SDS011;73190;50.780;5.658;2024-02-26T07:52:19;5.90;;;3.25;;
83282;SDS011;73190;50.780;5.658;2024-02-26T07:54:47;3.22;;;2.50;;
83282;SDS011;73190;50.780;5.658;2024-02-26T07:57:14;9.93;;;3.30;;
83282;SDS011;73190;50.780;5.658;2024-02-26T07:59:43;17.27;;;9.90;;
83282;SDS011;73190;50.780;5.658;2024-02-26T08:02:10;25.25;;;12.23;;
83282;SDS011;73190;50.780;5.658;2024-02-26T08:04:38;11.70;;;6.35;;
83282;SDS011;73190;50.780;5.658;2024-02-26T08:07:05;22.42;;;10.05;;
83282;SDS011;73190;50.780;5.658;2024-02-26T08:09:33;65.92;;;23.55;;
83282;SDS011;73190;50.780;5.658;2024-02-26T08:12:00;35.35;;;15.55;;
83282;SDS011;73190;50.780;5.658;2024-02-26T08:14:28;29.70;;;20.43;;
83282;SDS011;73190;50.780;5.658;2024-02-26T08:16:55;14.00;;;8.65;;
83282;SDS011;73190;50.780;5.658;2024-02-26T08:19:23;6.70;;;4.42;;
83282;SDS011;73190;50.780;5.658;2024-02-26T08:21:51;5.42;;;4.25;;
83282;SDS011;73190;50.780;5.658;2024-02-26T08:24:21;4.60;;;3.77;;
83282;SDS011;73190;50.780;5.658;2024-02-26T08:26:49;4.30;;;3.40;;
83282;SDS011;73190;50.780;5.658;2024-02-26T08:29:17;3.92;;;2.77;;
83282;SDS011;73190;50.780;5.658;2024-02-26T08:31:44;7.03;;;2.98;;
83282;SDS011;73190;50.780;5.658;2024-02-26T08:34:12;8.40;;;3.22;;
83282;SDS011;73190;50.780;5.658;2024-02-26T08:36:39;4.25;;;2.47;;
83282;SDS011;73190;50.780;5.658;2024-02-26T08:39:09;3.37;;;2.52;;
83282;SDS011;73190;50.780;5.658;2024-02-26T08:41:36;3.67;;;2.80;;
83282;SDS011;73190;50.780;5.658;2024-02-26T08:44:04;4.95;;;2.85;;
83282;SDS011;73190;50.780;5.658;2024-02-26T08:46:31;5.67;;;2.77;;
83282;SDS011;73190;50.780;5.658;2024-02-26T08:48:59;5.67;;;2.60;;
83282;SDS011;73190;50.780;5.658;2024-02-26T08:51:26;2.42;;;1.82;;
83282;SDS011;73190;50.780;5.658;2024-02-26T08:53:54;6.15;;;2.50;;
83282;SDS011;73190;50.780;5.658;2024-02-26T08:56:21;4.28;;;2.42;;
83282;SDS011;73190;50.780;5.658;2024-02-26T08:58:49;6.58;;;2.45;;
83282;SDS011;73190;50.780;5.658;2024-02-26T09:01:18;8.00;;;3.23;;
83282;SDS011;73190;50.780;5.658;2024-02-26T09:03:46;4.40;;;2.87;;
83282;SDS011;73190;50.780;5.658;2024-02-26T09:06:14;8.80;;;5.85;;
83282;SDS011;73190;50.780;5.658;2024-02-26T09:08:42;31.50;;;18.15;;
83282;SDS011;73190;50.780;5.658;2024-02-26T09:11:09;12.93;;;6.60;;
83282;SDS011;73190;50.780;5.658;2024-02-26T09:13:37;9.65;;;6.30;;
83282;SDS011;73190;50.780;5.658;2024-02-26T09:16:05;9.18;;;7.37;;
83282;SDS011;73190;50.780;5.658;2024-02-26T09:18:32;6.87;;;3.70;;
83282;SDS011;73190;50.780;5.658;2024-02-26T09:21:04;9.08;;;7.35;;
83282;SDS011;73190;50.780;5.658;2024-02-26T09:23:33;6.80;;;4.95;;
83282;SDS011;73190;50.780;5.658;2024-02-26T09:26:00;5.53;;;4.70;;
83282;SDS011;73190;50.780;5.658;2024-02-26T09:28:28;12.55;;;6.95;;
83282;SDS011;73190;50.780;5.658;2024-02-26T09:30:57;8.78;;;6.67;;
83282;SDS011;73190;50.780;5.658;2024-02-26T09:33:25;4.87;;;4.05;;
83282;SDS011;73190;50.780;5.658;2024-02-26T09:35:52;7.00;;;6.30;;
83282;SDS011;73190;50.780;5.658;2024-02-26T09:38:20;6.37;;;5.45;;
83282;SDS011;73190;50.780;5.658;2024-02-26T09:40:48;6.72;;;3.67;;
83282;SDS011;73190;50.780;5.658;2024-02-26T09:43:15;5.40;;;4.22;;
83282;SDS011;73190;50.780;5.658;2024-02-26T09:45:46;6.70;;;5.00;;
83282;SDS011;73190;50.780;5.658;2024-02-26T09:48:16;5.47;;;4.65;;
83282;SDS011;73190;50.780;5.658;2024-02-26T09:50:44;4.30;;;3.90;;
83282;SDS011;73190;50.780;5.658;2024-02-26T09:53:13;6.47;;;5.28;;
83282;SDS011;73190;50.780;5.658;2024-02-26T09:55:40;6.17;;;5.50;;
83282;SDS011;73190;50.780;5.658;2024-02-26T09:58:08;3.85;;;3.42;;
83282;SDS011;73190;50.780;5.658;2024-02-26T10:00:37;9.15;;;7.20;;
83282;SDS011;73190;50.780;5.658;2024-02-26T10:03:07;6.37;;;5.03;;
83282;SDS011;73190;50.780;5.658;2024-02-26T10:05:37;5.85;;;4.50;;
83282;SDS011;73190;50.780;5.658;2024-02-26T10:08:05;4.97;;;2.95;;
83282;SDS011;73190;50.780;5.658;2024-02-26T10:10:34;5.00;;;3.33;;
83282;SDS011;73190;50.780;5.658;2024-02-26T10:13:03;4.20;;;3.30;;
83282;SDS011;73190;50.780;5.658;2024-02-26T10:15:33;4.45;;;2.60;;
83282;SDS011;73190;50.780;5.658;2024-02-26T10:18:08;4.60;;;3.50;;
83282;SDS011;73190;50.780;5.658;2024-02-26T10:20:32;2.25;;;1.30;;
83282;SDS011;73190;50.780;5.658;2024-02-26T10:23:05;1.70;;;1.20;;
83282;SDS011;73190;50.780;5.658;2024-02-26T10:25:32;1.57;;;1.40;;
83282;SDS011;73190;50.780;5.658;2024-02-26T10:28:00;1.37;;;1.10;;
83282;SDS011;73190;50.780;5.658;2024-02-26T10:30:28;2.17;;;0.75;;
83282;SDS011;73190;50.780;5.658;2024-02-26T10:32:56;1.55;;;0.60;;
83282;SDS011;73190;50.780;5.658;2024-02-26T10:35:24;1.20;;;0.80;;
83282;SDS011;73190;50.780;5.658;2024-02-26T10:37:52;1.80;;;1.00;;
83282;SDS011;73190;50.780;5.658;2024-02-26T10:40:19;1.00;;;0.60;;
83282;SDS011;73190;50.780;5.658;2024-02-26T10:42:47;1.55;;;0.60;;
83282;SDS011;73190;50.780;5.658;2024-02-26T10:45:14;3.30;;;0.60;;
83282;SDS011;73190;50.780;5.658;2024-02-26T10:47:42;1.52;;;0.78;;
83282;SDS011;73190;50.780;5.658;2024-02-26T10:50:10;1.15;;;0.50;;
83282;SDS011;73190;50.780;5.658;2024-02-26T10:52:40;0.90;;;0.60;;
83282;SDS011;73190;50.780;5.658;2024-02-26T10:55:12;1.75;;;0.95;;
83282;SDS011;73190;50.780;5.658;2024-02-26T10:57:44;4.35;;;2.77;;
83282;SDS011;73190;50.780;5.658;2024-02-26T11:00:13;1.52;;;1.10;;
83282;SDS011;73190;50.780;5.658;2024-02-26T11:02:42;1.97;;;1.07;;
83282;SDS011;73190;50.780;5.658;2024-02-26T11:07:39;2.08;;;1.00;;
83282;SDS011;73190;50.780;5.658;2024-02-26T11:10:08;4.10;;;1.98;;
83282;SDS011;73190;50.780;5.658;2024-02-26T11:12:38;1.77;;;1.40;;
83282;SDS011;73190;50.780;5.658;2024-02-26T11:15:06;1.60;;;1.35;;
83282;SDS011;73190;50.780;5.658;2024-02-26T11:17:36;2.58;;;1.85;;
83282;SDS011;73190;50.780;5.658;2024-02-26T11:20:05;2.27;;;1.60;;
83282;SDS011;73190;50.780;5.658;2024-02-26T11:22:37;2.27;;;1.45;;
83282;SDS011;73190;50.780;5.658;2024-02-26T11:25:04;2.58;;;0.80;;
83282;SDS011;73190;50.780;5.658;2024-02-26T11:27:38;2.95;;;0.62;;
83282;SDS011;73190;50.780;5.658;2024-02-26T11:30:08;0.68;;;0.50;;
83282;SDS011;73190;50.780;5.658;2024-02-26T11:32:37;1.40;;;0.55;;
83282;SDS011;73190;50.780;5.658;2024-02-26T11:35:05;2.55;;;0.42;;
83282;SDS011;73190;50.780;5.658;2024-02-26T11:37:33;0.68;;;0.50;;
83282;SDS011;73190;50.780;5.658;2024-02-26T11:40:01;1.02;;;0.60;;
83282;SDS011;73190;50.780;5.658;2024-02-26T11:42:29;1.35;;;0.60;;
83282;SDS011;73190;50.780;5.658;2024-02-26T11:44:56;2.27;;;0.70;;
83282;SDS011;73190;50.780;5.658;2024-02-26T11:47:26;1.13;;;0.80;;
83282;SDS011;73190;50.780;5.658;2024-02-26T11:49:54;1.77;;;1.10;;
83282;SDS011;73190;50.780;5.658;2024-02-26T11:52:22;1.72;;;1.10;;
83282;SDS011;73190;50.780;5.658;2024-02-26T11:54:50;2.92;;;1.10;;
83282;SDS011;73190;50.780;5.658;2024-02-26T11:57:25;2.50;;;1.33;;
83282;SDS011;73190;50.780;5.658;2024-02-26T11:59:55;1.90;;;1.20;;
83282;SDS011;73190;50.780;5.658;2024-02-26T12:05:16;6.28;;;3.70;;
83282;SDS011;73190;50.780;5.658;2024-02-26T12:07:46;13.45;;;6.45;;
83282;SDS011;73190;50.780;5.658;2024-02-26T12:10:15;6.58;;;3.72;;
83282;SDS011;73190;50.780;5.658;2024-02-26T12:13:07;7.05;;;4.60;;
83282;SDS011;73190;50.780;5.658;2024-02-26T12:15:42;3.08;;;1.55;;
83282;SDS011;73190;50.780;5.658;2024-02-26T12:18:17;3.50;;;2.40;;
83282;SDS011;73190;50.780;5.658;2024-02-26T12:20:46;3.05;;;1.98;;
83282;SDS011;73190;50.780;5.658;2024-02-26T12:23:16;2.42;;;1.30;;
83282;SDS011;73190;50.780;5.658;2024-02-26T12:25:43;1.25;;;1.00;;
83282;SDS011;73190;50.780;5.658;2024-02-26T12:28:13;1.45;;;1.17;;
83282;SDS011;73190;50.780;5.658;2024-02-26T12:30:41;2.00;;;1.07;;
83282;SDS011;73190;50.780;5.658;2024-02-26T12:35:56;4.00;;;2.75;;
83282;SDS011;73190;50.780;5.658;2024-02-26T12:38:24;3.70;;;2.70;;
83282;SDS011;73190;50.780;5.658;2024-02-26T12:40:53;3.42;;;2.40;;
83282;SDS011;73190;50.780;5.658;2024-02-26T12:43:21;7.28;;;3.30;;
83282;SDS011;73190;50.780;5.658;2024-02-26T12:45:48;3.90;;;2.50;;
83282;SDS011;73190;50.780;5.658;2024-02-26T12:48:16;2.55;;;1.72;;
83282;SDS011;73190;50.780;5.658;2024-02-26T12:50:47;5.12;;;3.08;;
83282;SDS011;73190;50.780;5.658;2024-02-26T12:56:02;4.30;;;3.00;;
83282;SDS011;73190;50.780;5.658;2024-02-26T12:58:30;4.37;;;2.65;;
83282;SDS011;73190;50.780;5.658;2024-02-26T13:00:59;6.12;;;2.98;;
83282;SDS011;73190;50.780;5.658;2024-02-26T13:03:27;10.60;;;6.75;;
83282;SDS011;73190;50.780;5.658;2024-02-26T13:05:55;8.83;;;5.53;;
83282;SDS011;73190;50.780;5.658;2024-02-26T13:08:23;6.30;;;4.53;;
83282;SDS011;73190;50.780;5.658;2024-02-26T13:10:51;4.58;;;3.55;;
83282;SDS011;73190;50.780;5.658;2024-02-26T13:13:18;3.83;;;3.00;;
83282;SDS011;73190;50.780;5.658;2024-02-26T13:15:46;5.70;;;4.37;;
83282;SDS011;73190;50.780;5.658;2024-02-26T13:18:14;12.40;;;8.60;;
83282;SDS011;73190;50.780;5.658;2024-02-26T13:20:42;5.72;;;3.83;;
83282;SDS011;73190;50.780;5.658;2024-02-26T13:23:12;3.60;;;2.85;;
83282;SDS011;73190;50.780;5.658;2024-02-26T13:25:40;4.60;;;3.45;;
83282;SDS011;73190;50.780;5.658;2024-02-26T13:28:08;4.17;;;2.72;;
83282;SDS011;73190;50.780;5.658;2024-02-26T13:31:04;4.95;;;3.12;;
83282;SDS011;73190;50.780;5.658;2024-02-26T13:33:33;3.85;;;2.80;;
83282;SDS011;73190;50.780;5.658;2024-02-26T13:36:01;5.40;;;3.58;;
83282;SDS011;73190;50.780;5.658;2024-02-26T13:38:29;4.55;;;3.00;;
83282;SDS011;73190;50.780;5.658;2024-02-26T13:40:57;5.78;;;3.42;;
83282;SDS011;73190;50.780;5.658;2024-02-26T13:43:24;5.40;;;4.03;;
83282;SDS011;73190;50.780;5.658;2024-02-26T13:45:52;5.30;;;4.08;;
83282;SDS011;73190;50.780;5.658;2024-02-26T13:48:19;4.83;;;3.70;;
83282;SDS011;73190;50.780;5.658;2024-02-26T13:50:48;4.50;;;3.20;;
83282;SDS011;73190;50.780;5.658;2024-02-26T13:53:15;5.28;;;3.05;;
83282;SDS011;73190;50.780;5.658;2024-02-26T13:55:43;6.03;;;3.60;;
83282;SDS011;73190;50.780;5.658;2024-02-26T13:58:11;20.82;;;13.30;;
83282;SDS011;73190;50.780;5.658;2024-02-26T14:00:40;20.45;;;13.75;;
83282;SDS011;73190;50.780;5.658;2024-02-26T14:03:07;15.10;;;10.30;;
83282;SDS011;73190;50.780;5.658;2024-02-26T14:05:35;10.65;;;7.78;;
83282;SDS011;73190;50.780;5.658;2024-02-26T14:08:03;6.87;;;4.87;;
83282;SDS011;73190;50.780;5.658;2024-02-26T14:10:30;9.20;;;7.95;;
83282;SDS011;73190;50.780;5.658;2024-02-26T14:12:58;7.70;;;6.62;;
83282;SDS011;73190;50.780;5.658;2024-02-26T14:15:26;8.75;;;6.00;;
83282;SDS011;73190;50.780;5.658;2024-02-26T14:17:55;15.10;;;11.60;;
83282;SDS011;73190;50.780;5.658;2024-02-26T14:20:23;6.83;;;5.30;;
83282;SDS011;73190;50.780;5.658;2024-02-26T14:22:52;7.58;;;5.28;;
83282;SDS011;73190;50.780;5.658;2024-02-26T14:25:20;8.78;;;5.70;;
83282;SDS011;73190;50.780;5.658;2024-02-26T14:27:48;7.45;;;5.83;;
83282;SDS011;73190;50.780;5.658;2024-02-26T14:30:16;7.37;;;5.58;;
83282;SDS011;73190;50.780;5.658;2024-02-26T14:32:43;8.78;;;5.90;;
83282;SDS011;73190;50.780;5.658;2024-02-26T14:35:11;8.30;;;6.05;;
83282;SDS011;73190;50.780;5.658;2024-02-26T14:37:39;9.05;;;6.28;;
83282;SDS011;73190;50.780;5.658;2024-02-26T14:40:07;10.48;;;7.78;;
83282;SDS011;73190;50.780;5.658;2024-02-26T14:42:34;9.93;;;6.72;;
83282;SDS011;73190;50.780;5.658;2024-02-26T14:45:02;10.03;;;7.10;;
83282;SDS011;73190;50.780;5.658;2024-02-26T14:47:33;9.35;;;6.95;;
83282;SDS011;73190;50.780;5.658;2024-02-26T14:50:01;11.05;;;7.30;;
83282;SDS011;73190;50.780;5.658;2024-02-26T14:52:29;12.47;;;8.60;;
83282;SDS011;73190;50.780;5.658;2024-02-26T14:54:57;9.93;;;7.53;;
83282;SDS011;73190;50.780;5.658;2024-02-26T14:57:25;12.75;;;8.40;;
83282;SDS011;73190;50.780;5.658;2024-02-26T14:59:52;10.30;;;8.43;;
83282;SDS011;73190;50.780;5.658;2024-02-26T15:02:20;11.12;;;8.40;;
83282;SDS011;73190;50.780;5.658;2024-02-26T15:04:48;12.07;;;8.63;;
83282;SDS011;73190;50.780;5.658;2024-02-26T15:07:17;13.22;;;9.30;;
83282;SDS011;73190;50.780;5.658;2024-02-26T15:09:46;15.05;;;10.23;;